Wasta, South Dakota
Current Conditions -  °F | °C
As of 2:52 PM on Saturday 25 Oct 2014 (Local Time) from KRAP Reporting Station
Clear Clear  
Wind Chill: 65°   Ceiling: Unl
Heat Index: 65°   Visibility: 10mi
Dew Point: 36°   Wind: 15mph
Humidity: 34%   Direction: 160°SSE
Pressure: 30.02"   Gusts: NA
Location:  44.07°N, 102.45°W
Report Text: KRAP 252052Z 16013KT 10SM CLR 18/02 A3002 RMK AO2 SLP162 T01830022 56030
Loading
Personal Weather Stations






























Interactive Weather Map
Tropical Storm Tracking
New forecast layout! Learn more

10-Day Weather Forecast

Advertisements
Track Severe Weather on mobile